Time;durP1;ratioP1;P1;durP2;ratioP2;P2;SDS_P1;SDS_P2;PMS_P1;PMS_P2;Temp;Humidity;BMP_temperature;BMP_pressure;BME280_temperature;BME280_humidity;BME280_pressure;Samples;Min_cycle;Max_cycle;Signal;HPM_P1;HPM_P2
2024/02/09 00:01:36;;;;;;;24.75;7.93;;;;;;;8.63;100.00;98734.47;6085634;19;20006;-73
2024/02/09 00:03:43;;;;;;;24.60;9.25;;;;;;;8.71;100.00;98727.78;6085988;19;20014;-72
2024/02/09 00:05:49;;;;;;;25.58;9.48;;;;;;;8.63;100.00;98710.91;6088685;19;20113;-74
2024/02/09 00:08:00;;;;;;;24.15;8.88;;;;;;;8.65;100.00;98707.25;6086821;19;20537;-73
2024/02/09 00:10:07;;;;;;;22.70;8.90;;;;;;;8.70;100.00;98704.34;6087637;19;20003;-73
2024/02/09 00:12:12;;;;;;;25.67;9.95;;;;;;;8.70;100.00;98699.94;6088687;19;20078;-71
2024/02/09 00:14:17;;;;;;;20.88;9.48;;;;;;;8.70;100.00;98693.84;6086277;19;20014;-73
2024/02/09 00:16:22;;;;;;;19.17;10.18;;;;;;;8.71;100.00;98688.50;6086080;19;20599;-72
2024/02/09 00:18:27;;;;;;;16.30;8.00;;;;;;;8.74;100.00;98679.59;6087585;19;20038;-73
2024/02/09 00:20:33;;;;;;;21.40;8.88;;;;;;;8.67;100.00;98684.44;6087454;19;20023;-72
2024/02/09 00:22:36;;;;;;;25.58;10.20;;;;;;;8.78;100.00;98681.09;6085379;19;20014;-73
2024/02/09 00:24:45;;;;;;;30.40;10.38;;;;;;;8.72;100.00;98677.09;6085359;19;20015;-73
2024/02/09 00:26:50;;;;;;;22.55;10.55;;;;;;;8.69;100.00;98668.59;6087096;19;20590;-73
2024/02/09 00:28:55;;;;;;;24.80;10.73;;;;;;;8.74;100.00;98670.00;6085247;19;20007;-73
2024/02/09 00:31:00;;;;;;;25.08;10.60;;;;;;;8.71;100.00;98667.56;6083947;19;20006;-73
2024/02/09 00:33:08;;;;;;;28.13;11.10;;;;;;;8.76;100.00;98675.94;6084745;19;20471;-73
2024/02/09 00:35:13;;;;;;;27.77;10.40;;;;;;;8.72;100.00;98671.03;6085562;19;20003;-73
2024/02/09 00:37:21;;;;;;;22.42;10.65;;;;;;;8.81;100.00;98659.91;6083518;19;20373;-72
2024/02/09 00:39:24;;;;;;;34.38;11.07;;;;;;;8.86;100.00;98665.69;6085261;19;20010;-72
2024/02/09 00:41:32;;;;;;;;;;;;;;;8.78;100.00;98645.25;6086385;19;20018;-73
2024/02/09 00:43:37;;;;;;;28.38;11.23;;;;;;;8.84;100.00;98644.00;6084716;19;19902;-72
2024/02/09 00:45:39;;;;;;;28.63;11.32;;;;;;;8.84;100.00;98644.00;6085254;19;20457;-73
2024/02/09 00:47:46;;;;;;;23.13;10.48;;;;;;;8.91;100.00;98639.19;6085875;19;20025;-73
2024/02/09 00:49:51;;;;;;;23.67;9.75;;;;;;;8.94;100.00;98631.09;6084753;19;20736;-73
2024/02/09 00:51:56;;;;;;;24.30;9.77;;;;;;;8.86;100.00;98629.00;6086337;19;20010;-73
2024/02/09 00:54:01;;;;;;;24.95;11.07;;;;;;;8.87;100.00;98628.06;6081705;19;20007;-73
2024/02/09 00:56:06;;;;;;;23.33;10.55;;;;;;;8.84;100.00;98623.03;6083885;19;20728;-73
2024/02/09 00:58:14;;;;;;;21.60;10.15;;;;;;;8.85;100.00;98624.72;6083637;19;20022;-73
2024/02/09 01:00:19;;;;;;;21.40;10.40;;;;;;;8.85;100.00;98609.03;6080027;19;20078;-71
2024/02/09 01:02:25;;;;;;;26.05;9.90;;;;;;;8.94;100.00;98607.53;6080246;19;20027;-73
2024/02/09 01:04:31;;;;;;;26.95;12.18;;;;;;;8.90;100.00;98606.06;6080696;19;20015;-73
2024/02/09 01:06:37;;;;;;;29.60;11.68;;;;;;;8.96;100.00;98600.41;6079780;19;20121;-73
2024/02/09 01:08:42;;;;;;;24.45;11.02;;;;;;;8.95;100.00;98603.97;6082213;19;20570;-73
2024/02/09 01:10:46;;;;;;;26.83;11.40;;;;;;;8.92;100.00;98597.16;6083387;19;20018;-72
2024/02/09 02:44:54;;;;;;;14.80;6.85;;;;;;;9.06;100.00;98454.75;6081984;19;20043;-71
2024/02/09 02:47:00;;;;;;;13.93;6.15;;;;;;;9.07;100.00;98459.03;6086811;19;20499;-74
2024/02/09 03:05:14;;;;;;;13.80;5.35;;;;;;;9.05;100.00;98416.38;5982542;19;2005624;-72
2024/02/09 03:07:23;;;;;;;18.27;6.65;;;;;;;9.02;100.00;98412.19;6086830;19;20007;-73
2024/02/09 03:09:47;;;;;;;14.13;6.28;;;;;;;9.02;100.00;98409.56;6082851;19;20637;-72
2024/02/09 03:11:52;;;;;;;13.50;7.07;;;;;;;9.02;100.00;98411.38;6084417;19;20911;-72
2024/02/09 03:13:57;;;;;;;12.52;7.85;;;;;;;9.03;100.00;98405.19;6081520;19;20007;-72
2024/02/09 03:16:03;;;;;;;14.40;7.32;;;;;;;9.00;100.00;98402.78;6084003;19;21237;-72
2024/02/09 03:18:05;;;;;;;15.48;7.03;;;;;;;9.03;100.00;98399.94;6086164;19;20031;-72
2024/02/09 03:20:11;;;;;;;11.05;6.13;;;;;;;9.03;100.00;98397.34;6085172;19;20739;-72
2024/02/09 03:22:16;;;;;;;16.33;6.60;;;;;;;9.06;100.00;98406.72;6085671;19;20023;-72
2024/02/09 03:24:24;;;;;;;15.75;6.22;;;;;;;9.00;100.00;98387.06;6085929;19;20455;-72
2024/02/09 03:26:30;;;;;;;11.52;6.28;;;;;;;8.97;100.00;98385.50;6087581;19;20046;-72
2024/02/09 03:28:34;;;;;;;12.52;6.38;;;;;;;8.98;100.00;98384.56;6085344;19;20031;-73
2024/02/09 03:30:39;;;;;;;16.17;6.10;;;;;;;9.00;100.00;98384.44;6082043;19;20122;-73
2024/02/09 03:32:45;;;;;;;13.75;7.13;;;;;;;9.02;100.00;98385.16;6086997;19;20006;-72
2024/02/09 03:34:51;;;;;;;15.35;5.95;;;;;;;9.02;100.00;98378.13;6080938;19;20007;-72
2024/02/09 03:36:56;;;;;;;10.38;5.70;;;;;;;9.01;100.00;98383.50;6084714;19;20440;-72
2024/02/09 03:39:02;;;;;;;12.98;5.93;;;;;;;9.02;100.00;98374.69;6084672;19;20034;-72
2024/02/09 03:41:10;;;;;;;14.88;7.13;;;;;;;9.01;100.00;98380.88;6077799;19;20039;-71
2024/02/09 03:43:15;;;;;;;13.45;6.45;;;;;;;8.98;100.00;98375.88;6081875;19;20468;-72
2024/02/09 03:45:17;;;;;;;18.20;6.38;;;;;;;9.01;100.00;98370.41;6082481;19;20022;-72
2024/02/09 03:47:24;;;;;;;13.95;6.93;;;;;;;8.99;100.00;98367.06;6081737;19;20010;-72
2024/02/09 03:49:29;;;;;;;17.27;7.40;;;;;;;8.98;100.00;98368.84;6080143;19;20022;-72
2024/02/09 03:51:35;;;;;;;14.20;6.28;;;;;;;8.98;100.00;98366.22;6083293;19;20025;-73
2024/02/09 03:53:40;;;;;;;14.05;6.13;;;;;;;8.99;100.00;98364.44;6081020;19;20546;-72
2024/02/09 03:55:45;;;;;;;13.95;7.47;;;;;;;9.01;100.00;98360.75;6083856;19;20027;-72
2024/02/09 03:57:52;;;;;;;12.35;6.10;;;;;;;9.02;100.00;98367.66;6085040;19;20003;-72
2024/02/09 03:59:55;;;;;;;11.20;5.55;;;;;;;9.02;100.00;98365.03;6081508;19;20020;-72
2024/02/09 04:02:04;;;;;;;8.82;5.15;;;;;;;9.02;100.00;98361.59;6082957;19;19999;-72
2024/02/09 04:04:09;;;;;;;9.75;5.38;;;;;;;9.04;100.00;98362.31;6081835;19;20031;-72
2024/02/09 04:06:14;;;;;;;12.98;5.88;;;;;;;9.04;100.00;98364.94;6085011;19;20349;-72
2024/02/09 04:08:19;;;;;;;12.15;5.55;;;;;;;9.06;100.00;98355.19;6081251;19;20010;-72
2024/02/09 04:10:24;;;;;;;13.93;6.10;;;;;;;9.07;100.00;98356.03;6084656;19;20043;-73
2024/02/09 04:12:48;;;;;;;13.63;5.43;;;;;;;9.09;100.00;98349.72;6085052;19;20699;-73
2024/02/09 04:14:55;;;;;;;13.77;6.60;;;;;;;9.10;100.00;98346.13;6083349;19;20687;-72
2024/02/09 04:17:01;;;;;;;15.32;7.13;;;;;;;9.15;100.00;98343.19;6082065;19;20039;-73
2024/02/09 04:19:03;;;;;;;10.93;5.28;;;;;;;9.15;100.00;98346.63;6084133;19;20117;-72
2024/02/09 04:21:09;;;;;;;11.05;5.68;;;;;;;9.12;100.00;98346.88;6078376;19;20347;-72
2024/02/09 04:23:14;;;;;;;12.75;5.60;;;;;;;9.16;100.00;98345.69;6084104;19;20014;-71
2024/02/09 04:25:19;;;;;;;14.73;6.60;;;;;;;9.12;100.00;98348.66;6084784;19;20819;-70
2024/02/09 04:27:25;;;;;;;16.88;5.45;;;;;;;9.14;100.00;98339.72;6084558;19;20010;-72
2024/02/09 04:29:32;;;;;;;11.50;5.65;;;;;;;9.06;100.00;98329.00;6085931;19;20103;-71
2024/02/09 04:31:41;;;;;;;10.70;5.40;;;;;;;9.08;100.00;98334.94;6082242;19;20410;-70
2024/02/09 04:33:46;;;;;;;11.55;4.82;;;;;;;9.08;100.00;98324.44;6084090;19;20010;-70
2024/02/09 04:35:54;;;;;;;14.40;5.55;;;;;;;9.13;100.00;98327.56;6084108;19;20540;-71
2024/02/09 04:38:06;;;;;;;10.73;5.38;;;;;;;9.10;100.00;98319.94;6080846;19;20018;-71
2024/02/09 04:40:09;;;;;;;13.20;5.70;;;;;;;9.10;100.00;98319.09;6082380;19;20423;-71
2024/02/09 04:42:14;;;;;;;12.20;5.65;;;;;;;9.13;100.00;98321.50;6084946;19;20056;-71
2024/02/09 04:44:20;;;;;;;13.30;5.53;;;;;;;9.11;100.00;98319.00;6083243;19;20023;-70
2024/02/09 04:46:23;;;;;;;9.82;4.38;;;;;;;9.13;100.00;98309.22;6081252;19;20205;-70
2024/02/09 04:48:31;;;;;;;8.98;5.03;;;;;;;9.15;100.00;98312.56;6083677;19;20018;-71
2024/02/09 04:50:36;;;;;;;15.07;5.05;;;;;;;9.19;100.00;98308.78;6084425;19;20007;-71
2024/02/09 04:52:41;;;;;;;13.68;4.65;;;;;;;9.16;100.00;98303.78;6082389;19;20002;-70
2024/02/09 04:54:46;;;;;;;10.43;4.82;;;;;;;9.16;100.00;98298.53;6082261;19;20006;-71
2024/02/09 04:56:51;;;;;;;10.02;4.38;;;;;;;9.13;100.00;98303.97;6082176;19;20027;-70
2024/02/09 04:58:53;;;;;;;9.68;4.25;;;;;;;9.09;100.00;98297.31;6084263;19;20010;-70
2024/02/09 05:00:59;;;;;;;8.88;4.20;;;;;;;9.10;100.00;98293.75;6084536;19;20011;-70
2024/02/09 05:03:05;;;;;;;12.20;4.88;;;;;;;9.08;100.00;98293.00;6082805;19;20011;-70
2024/02/09 05:05:13;;;;;;;9.80;4.07;;;;;;;9.14;100.00;98294.38;6079688;19;20011;-69
2024/02/09 05:07:18;;;;;;;17.50;5.40;;;;;;;9.13;100.00;98287.44;6083896;19;20383;-69
2024/02/09 05:09:23;;;;;;;10.13;4.63;;;;;;;9.17;100.00;98291.50;6084421;19;20563;-70
2024/02/09 05:11:28;;;;;;;11.70;4.72;;;;;;;9.19;100.00;98287.81;6080636;19;20010;-69
2024/02/09 05:13:34;;;;;;;11.73;4.63;;;;;;;9.19;100.00;98287.81;6083031;19;20006;-70
2024/02/09 05:15:39;;;;;;;10.15;4.88;;;;;;;9.19;100.00;98274.72;6083606;19;20015;-70
2024/02/09 05:17:41;;;;;;;8.38;5.10;;;;;;;9.22;100.00;98282.34;6082189;19;20487;-69
2024/02/09 05:19:48;;;;;;;7.13;3.63;;;;;;;9.24;100.00;98276.97;6083275;19;20070;-70
2024/02/09 05:21:57;;;;;;;9.52;4.18;;;;;;;9.25;100.00;98277.81;6082699;19;20428;-70
2024/02/09 05:24:04;;;;;;;9.70;4.47;;;;;;;9.19;100.00;98268.66;6080876;19;20110;-70
2024/02/09 05:26:13;;;;;;;15.25;4.50;;;;;;;9.27;100.00;98273.28;6082868;19;20016;-70
2024/02/09 05:28:17;;;;;;;11.07;5.45;;;;;;;9.26;100.00;98267.22;6083220;19;20038;-69
2024/02/09 05:30:22;;;;;;;14.10;4.55;;;;;;;9.32;100.00;98269.38;6082859;19;20025;-69
2024/02/09 05:32:27;;;;;;;12.88;5.18;;;;;;;9.31;100.00;98264.25;6080304;19;20014;-68
2024/02/09 05:34:33;;;;;;;15.43;4.85;;;;;;;9.30;100.00;98257.34;6083022;19;20014;-68
2024/02/09 05:36:38;;;;;;;10.10;4.03;;;;;;;9.29;100.00;98264.34;6086708;19;20009;-70
2024/02/09 05:38:46;;;;;;;10.98;4.60;;;;;;;9.31;100.00;98256.38;6089868;19;20031;-68
2024/02/09 05:40:51;;;;;;;10.48;4.03;;;;;;;9.28;100.00;98262.69;6089772;19;20295;-68
2024/02/09 05:42:57;;;;;;;8.73;4.15;;;;;;;9.29;100.00;98255.66;6088651;19;20006;-70
2024/02/09 05:45:05;;;;;;;11.98;4.10;;;;;;;9.37;100.00;98248.91;6091370;19;20460;-69
2024/02/09 05:47:10;;;;;;;12.95;4.15;;;;;;;9.37;100.00;98255.91;6084603;19;20007;-68
2024/02/09 05:49:12;;;;;;;9.98;4.15;;;;;;;9.42;100.00;98256.38;6090266;19;20090;-68
2024/02/09 05:51:19;;;;;;;8.77;4.28;;;;;;;9.39;100.00;98243.53;6090617;19;20006;-69
2024/02/09 05:53:24;;;;;;;15.55;5.03;;;;;;;9.41;100.00;98241.63;6085313;19;20017;-68
2024/02/09 05:55:34;;;;;;;8.13;3.88;;;;;;;9.37;100.00;98248.91;6087808;19;20118;-68
2024/02/09 05:57:39;;;;;;;9.88;4.10;;;;;;;9.34;100.00;98246.50;6089541;19;20219;-70
2024/02/09 05:59:44;;;;;;;8.85;3.63;;;;;;;9.38;100.00;98252.34;6085801;19;20006;-71
2024/02/09 06:01:50;;;;;;;11.48;3.70;;;;;;;9.36;100.00;98249.00;6086703;19;20010;-70
2024/02/09 06:03:55;;;;;;;11.07;3.85;;;;;;;9.38;100.00;98249.72;6087685;19;20019;-71
2024/02/09 06:06:00;;;;;;;13.50;4.80;;;;;;;9.35;100.00;98242.09;6086384;19;20002;-70
2024/02/09 06:08:08;;;;;;;10.80;4.35;;;;;;;9.32;100.00;98242.31;6087805;19;20082;-71
2024/02/09 06:10:13;;;;;;;10.75;4.25;;;;;;;9.33;100.00;98244.84;6087923;19;20002;-71
2024/02/09 06:12:20;;;;;;;13.10;4.50;;;;;;;9.43;100.00;98252.84;6086468;19;20078;-71
2024/02/09 06:14:25;;;;;;;10.77;3.80;;;;;;;9.41;100.00;98249.50;6088101;19;20007;-71
2024/02/09 06:16:31;;;;;;;10.02;4.47;;;;;;;9.40;100.00;98238.19;6084658;19;20090;-71
2024/02/09 06:18:36;;;;;;;11.18;4.38;;;;;;;9.47;100.00;98237.69;6089460;19;20019;-69
2024/02/09 06:20:44;;;;;;;11.20;4.65;;;;;;;9.41;100.00;98231.97;6087292;19;20003;-72
2024/02/09 06:22:49;;;;;;;10.15;4.38;;;;;;;9.43;100.00;98231.84;6089432;19;20045;-70
2024/02/09 06:24:57;;;;;;;8.75;4.13;;;;;;;9.42;100.00;98231.00;6085773;19;20007;-71
2024/02/09 06:27:01;;;;;;;7.32;3.75;;;;;;;9.43;100.00;98227.44;6087210;19;20011;-71
2024/02/09 06:29:10;;;;;;;12.07;3.80;;;;;;;9.45;100.00;98227.31;6087744;19;20039;-71
2024/02/09 06:31:18;;;;;;;11.73;4.72;;;;;;;9.40;100.00;98246.03;6083392;19;20002;-72
2024/02/09 06:33:26;;;;;;;12.43;4.57;;;;;;;9.40;100.00;98232.94;6087401;19;20534;-71
2024/02/09 06:35:33;;;;;;;12.27;4.10;;;;;;;9.41;100.00;98239.00;6087117;19;20007;-71
2024/02/09 06:37:38;;;;;;;8.95;4.00;;;;;;;9.39;100.00;98244.34;6084894;19;20011;-72
2024/02/09 06:39:43;;;;;;;7.95;4.45;;;;;;;9.35;100.00;98242.09;6087852;19;20035;-73
2024/02/09 06:41:48;;;;;;;11.43;4.32;;;;;;;9.32;100.00;98239.69;6087838;19;20027;-74
2024/02/09 06:43:54;;;;;;;8.68;3.95;;;;;;;9.32;100.00;98244.94;6084182;19;20613;-73
2024/02/09 06:46:02;;;;;;;10.52;4.60;;;;;;;9.29;100.00;98240.75;6086445;19;20102;-73
2024/02/09 06:48:09;;;;;;;11.70;4.40;;;;;;;9.30;100.00;98247.69;6084673;19;20477;-72
2024/02/09 06:50:14;;;;;;;12.38;3.90;;;;;;;9.31;100.00;98246.72;6086693;19;20006;-71
2024/02/09 06:52:20;;;;;;;11.93;4.20;;;;;;;9.32;100.00;98235.31;6087057;19;20073;-72
2024/02/09 06:54:23;;;;;;;8.50;3.40;;;;;;;9.29;100.00;98232.06;6087758;19;20100;-72
2024/02/09 06:56:28;;;;;;;16.38;4.53;;;;;;;9.30;100.00;98244.25;6086294;19;20018;-72
2024/02/09 06:58:34;;;;;;;10.27;3.90;;;;;;;9.35;100.00;98244.72;6085298;19;20018;-73
2024/02/09 07:00:39;;;;;;;9.18;4.38;;;;;;;9.36;100.00;98235.91;6088398;19;20023;-72
2024/02/09 07:02:48;;;;;;;11.07;3.85;;;;;;;9.38;100.00;98252.34;6086894;19;20039;-72
2024/02/09 07:05:00;;;;;;;8.98;4.50;;;;;;;9.38;100.00;98249.72;6089336;19;20391;-72
2024/02/09 07:07:08;;;;;;;10.23;3.85;;;;;;;9.42;100.00;98238.03;6088118;19;20005;-72
2024/02/09 07:09:17;;;;;;;8.02;3.70;;;;;;;9.39;100.00;98246.16;6087190;19;20014;-71
2024/02/09 07:11:37;;;;;;;11.77;4.47;;;;;;;9.35;100.00;98242.09;5982132;19;2004667;-71
2024/02/09 07:13:43;;;;;;;8.48;4.10;;;;;;;9.45;100.00;98243.03;6085533;19;20010;-71
2024/02/09 07:15:48;;;;;;;24.33;5.45;;;;;;;9.41;100.00;98244.25;6084172;19;20016;-70
2024/02/09 07:17:57;;;;;;;9.82;4.38;;;;;;;9.42;100.00;98235.41;6085190;19;20498;-72
2024/02/09 07:20:00;;;;;;;10.68;4.25;;;;;;;9.48;100.00;98241.97;6083624;19;20020;-71
2024/02/09 07:22:06;;;;;;;11.02;4.95;;;;;;;9.49;100.00;98241.84;6086062;19;20596;-71
2024/02/09 07:24:11;;;;;;;11.45;4.28;;;;;;;9.45;100.00;98235.19;6085249;19;20359;-71
2024/02/09 07:26:16;;;;;;;9.77;4.28;;;;;;;9.45;100.00;98235.19;6085781;19;20042;-70
2024/02/09 07:28:21;;;;;;;11.82;4.65;;;;;;;9.43;100.00;98237.94;6086481;19;20413;-70
2024/02/09 07:30:26;;;;;;;12.35;4.20;;;;;;;9.38;100.00;98234.00;6084932;19;20478;-70
2024/02/09 07:32:32;;;;;;;10.27;3.80;;;;;;;9.49;100.00;98248.91;6086793;19;20042;-71
2024/02/09 07:34:39;;;;;;;11.07;4.20;;;;;;;9.48;100.00;98255.06;6086586;19;20468;-71
2024/02/09 07:36:46;;;;;;;13.07;4.68;;;;;;;9.53;100.00;98253.78;6086649;19;20039;-71
2024/02/09 07:38:51;;;;;;;13.48;4.97;;;;;;;9.54;100.00;98247.59;6085317;19;20074;-69
2024/02/09 07:40:56;;;;;;;10.02;4.85;;;;;;;9.55;100.00;98241.38;6084282;19;20074;-68
2024/02/09 07:43:01;;;;;;;12.10;4.28;;;;;;;9.57;100.00;98236.84;6085339;19;20013;-69
2024/02/09 07:45:09;;;;;;;6.78;3.22;;;;;;;9.66;100.00;98253.66;6084561;19;20381;-71
2024/02/09 07:47:14;;;;;;;15.30;4.78;;;;;;;9.65;100.00;98249.38;6082082;19;20410;-71
2024/02/09 07:49:22;;;;;;;12.88;4.85;;;;;;;9.65;100.00;98255.44;6085668;19;20236;-72
2024/02/09 07:51:30;;;;;;;9.80;3.85;;;;;;;9.67;100.00;98255.34;6083476;19;20011;-71
2024/02/09 07:53:35;;;;;;;8.65;3.63;;;;;;;9.70;100.00;98249.00;6085330;19;20027;-71
2024/02/09 07:55:40;;;;;;;8.63;3.53;;;;;;;9.71;100.00;98255.91;6087066;19;20354;-70
2024/02/09 07:57:45;;;;;;;14.68;5.30;;;;;;;9.74;100.00;98266.16;6084824;19;20396;-70
2024/02/09 07:59:49;;;;;;;8.25;3.40;;;;;;;9.76;100.00;98262.47;6085493;19;20015;-70
2024/02/09 08:01:56;;;;;;;11.48;4.60;;;;;;;9.79;100.00;98256.16;6086163;19;20398;-69
2024/02/09 08:04:01;;;;;;;8.98;4.50;;;;;;;9.85;100.00;98259.13;6082728;19;20015;-69
2024/02/09 08:06:07;;;;;;;7.65;3.83;;;;;;;9.86;100.00;98262.59;6085461;19;20044;-70
2024/02/09 08:08:15;;;;;;;10.38;3.88;;;;;;;9.88;100.00;98256.25;6085300;19;20023;-70
2024/02/09 08:10:20;;;;;;;9.10;4.15;;;;;;;9.89;100.00;98264.97;6082761;19;20480;-71
2024/02/09 08:12:26;;;;;;;11.10;3.75;;;;;;;9.95;100.00;98261.00;6083994;19;20011;-69
2024/02/09 08:14:36;;;;;;;8.35;3.38;;;;;;;9.93;100.00;98265.56;6082723;19;20122;-69
2024/02/09 08:16:44;;;;;;;8.75;4.00;;;;;;;9.92;100.00;98269.97;6082026;19;20003;-70
2024/02/09 08:18:49;;;;;;;9.27;3.58;;;;;;;9.91;100.00;98263.06;6084268;19;20011;-70
2024/02/09 08:20:51;;;;;;;9.00;4.03;;;;;;;9.89;100.00;98268.41;6082465;19;20019;-70
2024/02/09 08:22:56;;;;;;;11.70;4.40;;;;;;;9.83;100.00;98270.69;6081121;19;20035;-70
2024/02/09 08:25:06;;;;;;;10.15;3.70;;;;;;;9.81;100.00;98273.44;6086528;19;20003;-71
2024/02/09 08:27:11;;;;;;;7.35;3.20;;;;;;;9.84;100.00;98267.94;6085779;19;20018;-72
2024/02/09 08:29:16;;;;;;;9.40;3.40;;;;;;;9.88;100.00;98276.41;6084223;19;20011;-71
2024/02/09 08:31:21;;;;;;;14.68;4.05;;;;;;;9.87;100.00;98277.34;6086751;19;20022;-70
2024/02/09 08:33:26;;;;;;;7.05;3.78;;;;;;;9.91;100.00;98273.53;6084898;19;20005;-71
2024/02/09 08:35:31;;;;;;;8.18;3.50;;;;;;;9.89;100.00;98275.44;6082362;19;20003;-71
2024/02/09 08:37:36;;;;;;;7.60;3.78;;;;;;;9.97;100.00;98283.53;6083835;19;20570;-70
2024/02/09 08:39:45;;;;;;;8.35;3.40;;;;;;;9.98;100.00;98280.00;6085695;19;20085;-69
2024/02/09 08:41:54;;;;;;;8.18;3.53;;;;;;;10.00;100.00;98291.16;6085082;19;20011;-70
2024/02/09 08:44:00;;;;;;;6.22;3.40;;;;;;;10.03;100.00;98292.72;6084733;19;20070;-68
2024/02/09 08:46:08;;;;;;;12.45;3.67;;;;;;;10.03;100.00;98282.22;6084652;19;20887;-70
2024/02/09 08:48:13;;;;;;;10.82;4.68;;;;;;;10.04;100.00;98287.38;6083374;19;20017;-69
2024/02/09 08:50:22;;;;;;;9.82;3.53;;;;;;;10.00;100.00;98293.78;6086392;19;20011;-68
2024/02/09 08:52:26;;;;;;;8.13;3.08;;;;;;;10.01;100.00;98295.47;6081342;19;20014;-68
2024/02/09 08:54:32;;;;;;;8.60;3.53;;;;;;;10.06;100.00;98297.75;6080472;19;20031;-70
2024/02/09 08:56:41;;;;;;;7.63;3.47;;;;;;;10.06;100.00;98300.38;6082854;19;20039;-69
2024/02/09 08:58:49;;;;;;;8.98;3.53;;;;;;;10.07;100.00;98300.25;6083094;19;20007;-70
2024/02/09 09:00:54;;;;;;;7.07;3.30;;;;;;;10.14;100.00;98302.38;6078184;19;20007;-70
2024/02/09 09:03:10;;;;;;;9.43;3.53;;;;;;;10.16;100.00;98303.09;6081460;19;20002;-69
2024/02/09 09:05:13;;;;;;;8.98;4.05;;;;;;;10.19;100.00;98294.97;6083566;19;20689;-69
2024/02/09 09:07:18;;;;;;;5.78;3.22;;;;;;;10.15;100.00;98304.06;6081219;19;20335;-69
2024/02/09 09:09:23;;;;;;;5.20;3.03;;;;;;;10.11;100.00;98312.16;6080999;19;20014;-69
2024/02/09 09:11:28;;;;;;;11.23;3.78;;;;;;;10.14;100.00;98302.38;6080792;19;20752;-69
2024/02/09 09:13:34;;;;;;;10.75;3.40;;;;;;;10.08;100.00;98307.16;6081207;19;20003;-69
2024/02/09 09:15:43;;;;;;;5.82;3.03;;;;;;;10.15;100.00;98304.06;6075260;19;20006;-68
2024/02/09 09:17:49;;;;;;;12.15;3.72;;;;;;;10.23;100.00;98312.97;6081422;19;20044;-71
2024/02/09 09:19:51;;;;;;;11.40;3.47;;;;;;;10.27;100.00;98308.34;6083244;19;20010;-69
2024/02/09 09:21:56;;;;;;;9.30;3.63;;;;;;;10.31;100.00;98307.16;6083176;19;20490;-69
2024/02/09 09:24:02;;;;;;;9.27;3.08;;;;;;;10.40;100.00;98316.94;6080403;19;20010;-68
2024/02/09 09:26:08;;;;;;;9.32;3.42;;;;;;;10.43;100.00;98306.19;6084275;19;20115;-69
2024/02/09 09:28:33;;;;;;;7.55;3.58;;;;;;;10.44;100.00;98309.63;6084768;19;20097;-71
2024/02/09 09:30:38;;;;;;;9.90;3.38;;;;;;;10.42;100.00;98312.38;6085987;19;20354;-71
2024/02/09 09:32:46;;;;;;;8.25;3.10;;;;;;;10.48;100.00;98318.94;6083306;19;20499;-71
2024/02/09 09:34:51;;;;;;;13.15;4.70;;;;;;;10.44;100.00;98320.97;6086956;19;20330;-72
2024/02/09 09:36:56;;;;;;;8.40;3.70;;;;;;;10.44;100.00;98314.88;6084667;19;20810;-71
2024/02/09 09:39:05;;;;;;;8.15;3.67;;;;;;;10.49;100.00;98313.56;6086277;19;20398;-71
2024/02/09 09:41:11;;;;;;;10.35;3.28;;;;;;;10.58;100.00;98321.63;6082918;19;20015;-71
2024/02/09 09:43:17;;;;;;;9.55;3.67;;;;;;;10.77;100.00;98317.41;6084534;19;20390;-72
2024/02/09 09:45:23;;;;;;;5.95;3.15;;;;;;;10.81;100.00;98322.41;6084079;19;20043;-72
2024/02/09 09:47:25;;;;;;;10.35;3.67;;;;;;;10.92;100.00;98317.09;6086370;19;20090;-72
2024/02/09 09:49:39;;;;;;;10.50;3.97;;;;;;;10.87;100.00;98309.59;6085703;19;20047;-70
2024/02/09 09:51:50;;;;;;;11.48;3.30;;;;;;;10.83;100.00;98308.19;6083878;19;20472;-70
2024/02/09 09:53:55;;;;;;;13.07;3.88;;;;;;;10.83;100.00;98320.50;6080952;19;20006;-70
2024/02/09 09:56:01;;;;;;;6.45;3.28;;;;;;;10.83;100.00;98321.31;6083616;19;20078;-69
2024/02/09 09:58:06;;;;;;;16.88;3.63;;;;;;;10.81;100.00;98320.59;6079175;19;20002;-70
2024/02/09 10:00:14;;;;;;;7.88;3.58;;;;;;;10.80;100.00;98321.56;6081880;19;20117;-69
2024/02/09 10:02:20;;;;;;;7.13;3.10;;;;;;;10.82;100.00;98322.28;6082793;19;20051;-69
2024/02/09 10:04:26;;;;;;;7.13;3.63;;;;;;;10.82;100.00;98316.19;6082863;19;21088;-70
2024/02/09 10:06:36;;;;;;;8.23;2.70;;;;;;;10.84;100.00;98324.78;6085374;19;20086;-71
2024/02/09 10:08:41;;;;;;;6.53;2.75;;;;;;;10.89;100.00;98325.22;6082908;19;20382;-71
2024/02/09 10:10:48;;;;;;;11.98;3.22;;;;;;;10.92;100.00;98311.84;6082896;19;20074;-70
2024/02/09 10:13:02;;;;;;;5.63;3.13;;;;;;;11.01;100.00;98321.59;6084295;19;20468;-71
2024/02/09 10:15:09;;;;;;;8.18;2.65;;;;;;;11.04;100.00;98325.78;6085610;19;20340;-70
2024/02/09 10:17:14;;;;;;;12.43;2.88;;;;;;;11.06;100.00;98323.84;6080514;19;20035;-71
2024/02/09 10:19:19;;;;;;;5.55;2.72;;;;;;;11.05;100.00;98327.44;6080813;19;20082;-68
2024/02/09 10:21:25;;;;;;;5.10;2.70;;;;;;;11.09;100.00;98329.69;6081294;19;20022;-68
2024/02/09 10:23:34;;;;;;;5.95;2.30;;;;;;;11.19;100.00;98327.13;6083965;19;20035;-68
2024/02/09 10:25:41;;;;;;;5.10;2.67;;;;;;;11.25;100.00;98333.69;6087391;19;20038;-72
2024/02/09 10:27:47;;;;;;;7.60;2.83;;;;;;;11.27;100.00;98327.31;6091160;19;20126;-70
2024/02/09 10:29:52;;;;;;;6.63;3.00;;;;;;;11.31;100.00;98330.53;6090740;19;20011;-71
2024/02/09 10:31:57;;;;;;;5.20;2.88;;;;;;;11.37;100.00;98333.50;6091038;19;20015;-68
2024/02/09 10:34:04;;;;;;;4.45;2.28;;;;;;;11.44;100.00;98336.41;6088244;19;20018;-71
2024/02/09 10:36:11;;;;;;;6.07;2.60;;;;;;;11.34;100.00;98332.91;6084606;19;20026;-70
2024/02/09 10:38:16;;;;;;;5.80;2.72;;;;;;;11.29;100.00;98341.16;6089119;19;20043;-70
2024/02/09 10:40:26;;;;;;;4.43;2.50;;;;;;;11.23;100.00;98344.31;6088789;19;20043;-70
2024/02/09 10:42:33;;;;;;;5.13;2.47;;;;;;;11.18;100.00;98354.38;6087543;19;20133;-71
2024/02/09 10:44:41;;;;;;;7.75;3.00;;;;;;;11.16;100.00;98353.66;6084860;19;20002;-70
2024/02/09 10:46:47;;;;;;;3.70;2.20;;;;;;;11.14;100.00;98352.97;6085967;19;20090;-73
2024/02/09 10:48:57;;;;;;;4.32;2.40;;;;;;;11.17;100.00;98352.72;6088130;19;20500;-71
2024/02/09 10:51:02;;;;;;;4.97;2.70;;;;;;;11.12;100.00;98352.25;6085898;19;20533;-70
2024/02/09 10:53:12;;;;;;;7.93;2.80;;;;;;;11.10;100.00;98362.88;6084317;19;20640;-69
2024/02/09 10:55:20;;;;;;;7.93;3.50;;;;;;;11.04;100.00;98365.19;6085527;19;20445;-70
2024/02/09 10:57:32;;;;;;;7.82;3.58;;;;;;;10.99;100.00;98366.41;6088091;19;20074;-71
2024/02/09 10:59:38;;;;;;;7.22;2.97;;;;;;;11.02;100.00;98367.09;6084975;19;20070;-70
2024/02/09 11:01:43;;;;;;;6.28;3.30;;;;;;;11.02;100.00;98377.63;6088752;19;20074;-71
2024/02/09 11:03:49;;;;;;;6.38;2.97;;;;;;;10.97;100.00;98378.81;6086046;19;20079;-73
2024/02/09 11:05:55;;;;;;;6.68;3.03;;;;;;;10.97;100.00;98372.72;6079051;19;20003;-70
2024/02/09 11:08:01;;;;;;;6.35;3.05;;;;;;;10.98;100.00;98372.63;6086114;19;20014;-70
2024/02/09 11:10:10;;;;;;;6.43;3.50;;;;;;;11.07;100.00;98367.56;6088712;19;20018;-71
2024/02/09 11:12:15;;;;;;;7.10;3.15;;;;;;;11.14;100.00;98371.38;6086769;19;20027;-71
2024/02/09 11:14:32;;;;;;;5.32;3.22;;;;;;;11.19;100.00;98362.13;6087157;19;20042;-71
2024/02/09 11:16:48;;;;;;;4.97;3.17;;;;;;;11.27;100.00;98358.88;5980870;19;2004714;-71
2024/02/09 11:18:53;;;;;;;5.72;3.10;;;;;;;11.42;100.00;98368.09;6087176;19;20040;-71
2024/02/09 11:21:02;;;;;;;9.45;4.15;;;;;;;11.51;100.00;98360.44;6084233;19;20015;-71
2024/02/09 11:23:08;;;;;;;7.72;3.25;;;;;;;11.78;100.00;98357.25;6085659;19;20039;-71
2024/02/09 11:25:13;;;;;;;8.95;3.38;;;;;;;11.73;100.00;98362.06;6087831;19;20130;-71
2024/02/09 11:27:21;;;;;;;6.63;3.33;;;;;;;11.74;100.00;98375.09;6087371;19;20768;-72
2024/02/09 11:29:27;;;;;;;7.30;3.22;;;;;;;11.75;100.00;98368.88;6087842;19;20019;-71
2024/02/09 11:31:32;;;;;;;5.47;2.75;;;;;;;11.66;100.00;98372.25;6084564;19;21788;-71
2024/02/09 11:33:41;;;;;;;7.90;2.92;;;;;;;11.55;100.00;98378.41;6083783;19;20018;-71
2024/02/09 11:35:50;;;;;;;6.25;3.15;;;;;;;11.52;100.00;98367.34;6082164;19;20006;-71
2024/02/09 11:37:55;;;;;;;5.07;2.88;;;;;;;11.43;100.00;98380.28;6081903;19;20090;-70